Peru, ME (04290)

9:00 PM EST on December 03, 2016 (GMT -0500)
APRSWXNET | | Change Station

Elev 705 ft 44.39 °N, 70.31 °W | Updated 33 minutes ago

Overcast
Overcast
31 °F
Feels Like 26 °F
N
5
Wind Variable Wind from NW
Gusts 13.0 mph

Today
High -- | Low -- °F
--% Chance of Precip.
Yesterday
High -- | Low -- °F
Precip. -- in
Pressure 30.04 in
Visibility 10.0 miles
Clouds Overcast 4100 ft
Windchill 26 °F
Dew Point 22 °F
Humidity 68%
Rainfall in
Snow Depth Not available.
7:00 AM 4:02 PM
Waxing Crescent, 18% visible
METAR KLEW 040156Z AUTO 32013G21KT 10SM OVC041 01/M07 A2999 RMK AO2 SLP173 T00111067 FZRANO
Pressure 30.04 in
Visibility 10.0 miles
Clouds Overcast 4100 ft
Windchill 26 °F
Dew Point 22 °F
Humidity 68%
Rainfall in
Snow Depth Not available.
7:00 AM 4:02 PM
Waxing Crescent, 18% visible
METAR KLEW 040156Z AUTO 32013G21KT 10SM OVC041 01/M07 A2999 RMK AO2 SLP173 T00111067 FZRANO

10-Day Weather Forecast

Almanac

Astronomy

Dec. 03, 2016 Rise Set
Actual Time
Civil Twilight
Nautical Twilight
Astronomical Twilight
Moon
Length of Visible Light
Length of Day
Tomorrow will be .
, % of the Moon is Illuminated

Today's Extremes

State Highs State Lows

Community

WunderPhotos

Upload Photos

1,955,560 photos uploaded!

WunderBlog® & News

Nearby

Air Quality

  Air Quality AQ Index Pollutant
Not available.

Snow Depth

Station Depth Elevation

Earthquake Activity

City Distance Mag. Time & Date
Minimum magnitude displayed is 2.5.

Coastal Water Temperatures

Place Temperature

Stations

Nearby Weather Stations

Station Location Temp. Windchill Dew Point Humidity Wind Precip. Elev Updated Type
                   

Watches & Warnings

There are currently no watches in effect.